createdAt,value
2023-01-12T00:01:31.906Z,7.97
2023-01-12T00:03:59.168Z,10.53
2023-01-12T00:06:26.272Z,8.00
2023-01-12T00:08:53.116Z,9.03
2023-01-12T00:11:20.556Z,7.50
2023-01-12T00:13:47.567Z,9.63
2023-01-12T00:16:35.338Z,11.20
2023-01-12T00:19:03.125Z,11.23
2023-01-12T00:21:33.011Z,12.30
2023-01-12T00:24:00.601Z,11.23
2023-01-12T00:26:27.086Z,11.30
2023-01-12T00:28:54.201Z,11.20
2023-01-12T00:31:20.725Z,9.33
2023-01-12T00:33:47.348Z,12.47
2023-01-12T00:36:17.865Z,11.03
2023-01-12T00:38:45.103Z,9.77
2023-01-12T00:41:33.221Z,13.17
2023-01-12T00:44:18.625Z,12.23
2023-01-12T00:46:45.706Z,17.43
2023-01-12T00:49:12.223Z,10.80
2023-01-12T00:51:38.776Z,11.03
2023-01-12T00:54:08.195Z,12.50
2023-01-12T00:56:35.598Z,8.63
2023-01-12T00:59:02.221Z,16.13
2023-01-12T01:01:29.063Z,11.63
2023-01-12T01:03:55.844Z,11.10
2023-01-12T01:06:22.891Z,10.30
2023-01-12T01:08:50.164Z,13.37
2023-01-12T01:11:18.743Z,15.20
2023-01-12T01:13:45.644Z,11.57
2023-01-12T01:16:14.699Z,11.20
2023-01-12T01:18:42.679Z,9.80
2023-01-12T01:21:11.524Z,11.27
2023-01-12T01:23:39.208Z,9.87
2023-01-12T01:26:11.874Z,8.90
2023-01-12T01:28:38.414Z,14.60
2023-01-12T01:31:10.805Z,10.97
2023-01-12T01:33:37.521Z,8.23
2023-01-12T01:36:04.403Z,9.43
2023-01-12T01:38:31.304Z,11.07
2023-01-12T01:40:58.289Z,11.77
2023-01-12T01:43:27.767Z,11.20
2023-01-12T01:46:07.568Z,10.27
2023-01-12T01:48:36.801Z,11.53
2023-01-12T01:51:08.870Z,10.27
2023-01-12T01:53:37.784Z,15.93
2023-01-12T01:56:10.531Z,12.27
2023-01-12T01:58:41.435Z,12.90
2023-01-12T02:01:08.759Z,10.87
2023-01-12T02:03:37.679Z,9.50
2023-01-12T02:06:07.261Z,16.17
2023-01-12T02:08:47.566Z,11.00
2023-01-12T02:11:49.795Z,11.67
2023-01-12T02:14:35.510Z,10.03
2023-01-12T02:17:19.104Z,15.47
2023-01-12T02:20:25.427Z,14.27
2023-01-12T02:23:24.021Z,17.77
2023-01-12T02:26:14.866Z,14.47
2023-01-12T02:28:44.640Z,12.10
2023-01-12T02:31:25.592Z,12.00
2023-01-12T02:34:26.446Z,13.47
2023-01-12T02:37:04.265Z,14.10
2023-01-12T02:39:52.329Z,18.33
2023-01-12T02:42:42.823Z,8.00
2023-01-12T02:45:18.332Z,15.83
2023-01-12T02:48:05.551Z,13.17
2023-01-12T02:51:10.301Z,11.77
2023-01-12T02:53:48.669Z,9.63
2023-01-12T02:56:31.039Z,11.97
2023-01-12T02:59:02.392Z,13.63
2023-01-12T03:01:30.336Z,12.10
2023-01-12T03:04:01.266Z,13.13
2023-01-12T03:07:08.075Z,14.93
2023-01-12T03:09:41.979Z,14.00
2023-01-12T03:12:13.751Z,12.00
2023-01-12T03:14:46.741Z,13.87
2023-01-12T03:17:26.550Z,11.23
2023-01-12T03:19:57.288Z,14.13
2023-01-12T03:22:24.459Z,11.67
2023-01-12T03:24:56.864Z,14.43
2023-01-12T03:27:32.116Z,15.30
2023-01-12T03:30:04.084Z,11.50
2023-01-12T03:32:31.048Z,9.73
2023-01-12T03:34:58.532Z,13.83
2023-01-12T03:37:30.984Z,11.33
2023-01-12T03:40:16.952Z,13.57
2023-01-12T03:43:06.210Z,11.10
2023-01-12T03:45:41.309Z,9.33
2023-01-12T03:48:29.394Z,13.23
2023-01-12T03:51:20.468Z,13.57
2023-01-12T03:53:50.031Z,13.37
2023-01-12T03:56:19.436Z,10.77
2023-01-12T03:58:47.604Z,9.30
2023-01-12T04:01:14.305Z,9.43
2023-01-12T04:03:41.345Z,10.90
2023-01-12T04:06:08.772Z,10.67
2023-01-12T04:08:35.589Z,12.10
2023-01-12T04:11:24.845Z,13.87
2023-01-12T04:13:51.811Z,12.70
2023-01-12T04:16:20.388Z,11.30
2023-01-12T04:18:46.919Z,12.63
2023-01-12T04:21:32.283Z,8.97
2023-01-12T04:24:00.373Z,11.43
2023-01-12T04:26:26.916Z,10.70
2023-01-12T04:28:53.353Z,12.80
2023-01-12T04:31:20.012Z,11.43
2023-01-12T04:33:46.531Z,10.70
2023-01-12T04:36:13.089Z,10.27
2023-01-12T04:38:40.588Z,9.67
2023-01-12T04:41:08.152Z,12.67
2023-01-12T04:43:36.046Z,7.33
2023-01-12T04:46:07.419Z,13.00
2023-01-12T04:48:34.032Z,13.20
2023-01-12T04:51:01.348Z,7.67
2023-01-12T04:53:28.648Z,9.07
2023-01-12T04:55:55.504Z,8.00
2023-01-12T04:58:22.151Z,10.57
2023-01-12T05:00:49.078Z,11.30
2023-01-12T05:03:16.072Z,9.03
2023-01-12T05:05:42.940Z,12.30
2023-01-12T05:08:28.767Z,10.93
2023-01-12T05:10:58.278Z,8.33
2023-01-12T05:13:27.727Z,8.00
2023-01-12T05:15:54.650Z,6.83
2023-01-12T05:18:21.701Z,6.87
2023-01-12T05:20:48.340Z,10.30
2023-01-12T05:23:15.017Z,9.27
2023-01-12T05:25:41.588Z,7.53
2023-01-12T05:28:08.090Z,9.70
2023-01-12T05:30:34.841Z,11.07
2023-01-12T05:33:02.315Z,9.80
2023-01-12T05:35:28.961Z,9.33
2023-01-12T05:37:56.828Z,13.93
2023-01-12T05:40:27.022Z,11.57
2023-01-12T05:43:12.137Z,13.50
2023-01-12T05:45:38.845Z,9.77
2023-01-12T05:48:09.601Z,15.10
2023-01-12T05:50:37.616Z,15.60
2023-01-12T05:53:07.699Z,11.10
2023-01-12T05:55:35.353Z,9.00
2023-01-12T05:58:01.846Z,12.07
2023-01-12T06:00:28.444Z,8.00
2023-01-12T06:02:55.354Z,9.80
2023-01-12T06:05:24.699Z,10.40
2023-01-12T06:07:52.863Z,8.27
2023-01-12T06:10:19.484Z,13.83
2023-01-12T06:13:04.467Z,10.20
2023-01-12T06:15:32.909Z,8.83
2023-01-12T06:17:59.869Z,9.70
2023-01-12T06:20:26.329Z,10.40
2023-01-12T06:22:52.863Z,8.07
2023-01-12T06:25:20.808Z,7.97
2023-01-12T06:27:47.677Z,8.03
2023-01-12T06:30:16.065Z,8.60
2023-01-12T06:32:43.077Z,8.20
2023-01-12T06:35:18.693Z,12.90
2023-01-12T06:37:48.305Z,7.30
2023-01-12T06:40:15.304Z,9.67
2023-01-12T06:42:42.158Z,9.20
2023-01-12T06:45:12.345Z,12.57
2023-01-12T06:47:47.718Z,9.20
2023-01-12T06:50:15.060Z,9.10
2023-01-12T06:52:42.050Z,5.33
2023-01-12T06:55:09.280Z,7.07
2023-01-12T06:57:36.388Z,7.90
2023-01-12T07:00:05.972Z,9.77
2023-01-12T07:02:32.612Z,8.27
2023-01-12T07:04:59.290Z,8.63
2023-01-12T07:07:27.422Z,8.10
2023-01-12T07:09:56.349Z,10.90
2023-01-12T07:12:24.081Z,6.57
2023-01-12T07:14:50.626Z,8.77
2023-01-12T07:17:19.745Z,6.83
2023-01-12T07:19:48.501Z,10.27
2023-01-12T07:22:15.546Z,8.37
2023-01-12T07:24:42.076Z,7.50
2023-01-12T07:27:10.834Z,6.37
2023-01-12T07:29:37.397Z,7.27
2023-01-12T07:32:04.494Z,6.00
2023-01-12T07:34:32.691Z,3.87
2023-01-12T07:36:59.156Z,4.30
2023-01-12T07:39:26.515Z,2.03
2023-01-12T07:42:11.705Z,5.27
2023-01-12T07:44:38.591Z,3.80
2023-01-12T07:47:06.701Z,5.53
2023-01-12T07:49:33.244Z,7.13
2023-01-12T07:52:00.251Z,6.53
2023-01-12T07:54:28.962Z,5.17
2023-01-12T07:56:55.465Z,3.70
2023-01-12T07:59:22.043Z,3.53
2023-01-12T08:01:52.030Z,2.97
2023-01-12T08:04:21.650Z,3.07
2023-01-12T08:06:48.282Z,3.87
2023-01-12T08:09:15.313Z,4.17
2023-01-12T08:11:42.962Z,4.03
2023-01-12T08:14:22.744Z,5.97
2023-01-12T08:16:55.348Z,3.27
2023-01-12T08:19:30.266Z,5.03
2023-01-12T08:22:01.259Z,4.03
2023-01-12T08:24:35.711Z,5.00
2023-01-12T08:27:05.799Z,2.90
2023-01-12T08:29:44.638Z,4.63
2023-01-12T08:32:15.002Z,7.47
2023-01-12T08:34:45.625Z,4.80
2023-01-12T08:37:16.298Z,4.47
2023-01-12T08:39:46.856Z,3.27
2023-01-12T08:42:13.793Z,5.40
2023-01-12T08:44:40.831Z,4.53
2023-01-12T08:47:28.313Z,4.03
2023-01-12T08:49:55.403Z,7.23
2023-01-12T08:52:22.046Z,5.90
2023-01-12T08:54:52.974Z,8.90
2023-01-12T08:57:19.951Z,13.27
2023-01-12T08:59:47.993Z,8.40
2023-01-12T09:02:16.710Z,4.23
2023-01-12T09:04:43.400Z,8.57
2023-01-12T09:07:11.995Z,12.10
2023-01-12T09:09:38.772Z,11.77
2023-01-12T09:12:06.284Z,7.93
2023-01-12T09:14:38.865Z,10.97
2023-01-12T09:17:07.645Z,7.33
2023-01-12T09:19:34.199Z,10.20
2023-01-12T09:22:00.953Z,5.93
2023-01-12T09:24:28.575Z,6.63
2023-01-12T09:26:59.861Z,6.63
2023-01-12T09:29:28.264Z,8.53
2023-01-12T09:31:55.739Z,8.00
2023-01-12T09:34:22.749Z,6.20
2023-01-12T09:36:52.516Z,10.50
2023-01-12T09:39:27.904Z,5.57
2023-01-12T09:42:14.588Z,9.33
2023-01-12T09:45:04.152Z,7.07
2023-01-12T09:47:49.800Z,6.73
2023-01-12T09:50:37.420Z,10.27
2023-01-12T09:53:22.912Z,12.10
2023-01-12T09:56:29.350Z,5.23
2023-01-12T09:59:18.682Z,12.17
2023-01-12T10:01:45.980Z,5.93
2023-01-12T10:04:13.397Z,6.67
2023-01-12T10:06:40.438Z,5.60
2023-01-12T10:09:16.515Z,6.40
2023-01-12T10:11:46.032Z,2.93
2023-01-12T10:14:34.374Z,6.23
2023-01-12T10:17:35.852Z,5.10
2023-01-12T10:20:12.291Z,4.37
2023-01-12T10:22:44.865Z,3.20
2023-01-12T10:25:17.385Z,3.13
2023-01-12T10:27:47.450Z,1.63
2023-01-12T10:30:18.162Z,2.27
2023-01-12T10:32:46.393Z,2.80
2023-01-12T10:35:15.757Z,2.23
2023-01-12T10:37:48.544Z,3.33
2023-01-12T10:40:28.093Z,2.80
2023-01-12T10:43:22.837Z,3.93
2023-01-12T10:46:15.828Z,1.57
2023-01-12T10:48:45.834Z,3.30
2023-01-12T10:51:28.671Z,2.43
2023-01-12T10:54:01.996Z,1.83
2023-01-12T10:56:38.118Z,1.63
2023-01-12T10:59:12.703Z,2.93
2023-01-12T11:02:06.135Z,2.70
2023-01-12T11:04:47.702Z,5.43
2023-01-12T11:07:26.398Z,3.20
2023-01-12T11:10:16.807Z,4.90
2023-01-12T11:12:55.044Z,4.87
2023-01-12T11:15:21.759Z,2.93
2023-01-12T11:18:27.384Z,5.80
2023-01-12T11:21:00.378Z,2.50
2023-01-12T11:23:37.101Z,4.30
2023-01-12T11:26:20.467Z,4.43
2023-01-12T11:28:53.303Z,2.77
2023-01-12T11:31:26.483Z,1.93
2023-01-12T11:34:04.719Z,1.30
2023-01-12T11:36:44.820Z,2.70
2023-01-12T11:39:19.680Z,3.03
2023-01-12T11:42:16.678Z,1.80
2023-01-12T11:45:02.315Z,2.80
2023-01-12T11:47:35.991Z,1.57
2023-01-12T11:50:11.547Z,1.07
2023-01-12T11:52:38.932Z,1.33
2023-01-12T11:55:05.994Z,1.43
2023-01-12T11:57:41.486Z,3.00
2023-01-12T12:00:44.600Z,2.33
2023-01-12T12:03:32.907Z,1.27
2023-01-12T12:06:36.637Z,1.40
2023-01-12T12:09:21.873Z,1.67
2023-01-12T12:12:13.298Z,1.03
2023-01-12T12:14:51.952Z,0.80
2023-01-12T12:17:33.024Z,1.30
2023-01-12T12:20:15.003Z,0.67
2023-01-12T12:23:10.625Z,1.07
2023-01-12T12:25:54.031Z,1.27
2023-01-12T12:28:42.405Z,0.77
2023-01-12T12:31:49.804Z,1.83
2023-01-12T12:34:36.984Z,1.83
2023-01-12T12:37:14.744Z,0.90
2023-01-12T12:39:54.146Z,1.17
2023-01-12T12:42:58.506Z,2.43
2023-01-12T12:46:05.415Z,0.50
2023-01-12T12:49:01.904Z,0.73
2023-01-12T12:51:32.519Z,0.77
2023-01-12T12:54:02.228Z,1.57
2023-01-12T12:56:32.344Z,1.90
2023-01-12T12:59:01.448Z,1.20
2023-01-12T13:01:31.037Z,1.37
2023-01-12T13:04:02.338Z,1.10
2023-01-12T13:06:37.120Z,1.30
2023-01-12T13:09:25.440Z,0.87
2023-01-12T13:12:09.512Z,0.70
2023-01-12T13:14:42.094Z,0.40
2023-01-12T13:17:41.128Z,0.57
2023-01-12T13:20:24.057Z,1.07
2023-01-12T13:22:51.721Z,1.10
2023-01-12T13:25:23.355Z,0.97
2023-01-12T13:28:00.579Z,0.30
2023-01-12T13:30:36.967Z,1.77
2023-01-12T13:33:18.780Z,0.60
2023-01-12T13:35:46.257Z,0.40
2023-01-12T13:38:33.860Z,0.50
2023-01-12T13:41:39.058Z,1.17
2023-01-12T13:44:14.905Z,1.13
2023-01-12T13:46:51.444Z,1.43
2023-01-12T13:49:48.967Z,0.73
2023-01-12T13:52:31.374Z,1.50
2023-01-12T13:55:02.482Z,0.40
2023-01-12T13:57:31.414Z,1.33
2023-01-12T14:00:05.070Z,1.87
2023-01-12T14:02:39.493Z,1.47
2023-01-12T14:05:42.630Z,1.00
2023-01-12T14:08:15.408Z,1.60
2023-01-12T14:11:20.855Z,3.00
2023-01-12T14:14:38.681Z,1.07
2023-01-12T14:17:36.419Z,1.10
2023-01-12T14:20:13.923Z,0.80
2023-01-12T14:22:41.269Z,2.83
2023-01-12T14:25:21.885Z,1.60
2023-01-12T14:27:54.535Z,2.53
2023-01-12T14:30:24.701Z,3.93
2023-01-12T14:32:53.491Z,2.30
2023-01-12T14:35:24.054Z,2.90
2023-01-12T14:37:54.562Z,2.87
2023-01-12T14:40:32.640Z,3.03
2023-01-12T14:43:20.057Z,2.17
2023-01-12T14:46:17.508Z,0.70
2023-01-12T14:48:55.880Z,2.50
2023-01-12T14:51:39.489Z,0.60
2023-01-12T14:54:09.380Z,2.27
2023-01-12T14:56:44.558Z,1.60
2023-01-12T14:59:16.660Z,1.20
2023-01-12T15:01:44.923Z,2.20
2023-01-12T15:04:20.820Z,1.63
2023-01-12T15:07:05.323Z,2.00
2023-01-12T15:09:50.780Z,0.90
2023-01-12T15:12:47.450Z,1.17
2023-01-12T15:15:22.806Z,1.40
2023-01-12T15:18:10.298Z,1.07
2023-01-12T15:21:02.033Z,4.77
2023-01-12T15:23:52.945Z,1.57
2023-01-12T15:26:21.365Z,1.70
2023-01-12T15:28:49.761Z,1.93
2023-01-12T15:31:29.534Z,1.80
2023-01-12T15:33:58.105Z,1.97
2023-01-12T15:36:25.201Z,3.37
2023-01-12T15:38:59.158Z,2.23
2023-01-12T15:41:46.928Z,1.63
2023-01-12T15:44:20.536Z,2.17
2023-01-12T15:46:47.999Z,1.60
2023-01-12T15:49:15.771Z,1.80
2023-01-12T15:51:51.568Z,2.37
2023-01-12T15:54:20.511Z,1.20
2023-01-12T15:56:48.155Z,2.90
2023-01-12T15:59:14.757Z,3.50
2023-01-12T16:01:45.460Z,1.53
2023-01-12T16:04:42.013Z,3.60
2023-01-12T16:07:09.572Z,3.17
2023-01-12T16:09:37.560Z,3.30
2023-01-12T16:12:05.579Z,2.30
2023-01-12T16:14:35.307Z,1.80
2023-01-12T16:17:34.582Z,1.73
2023-01-12T16:19:59.416Z,9.27
2023-01-12T16:22:29.046Z,3.60
2023-01-12T16:24:56.606Z,3.50
2023-01-12T16:27:29.057Z,3.77
2023-01-12T16:29:56.390Z,3.80
2023-01-12T16:32:24.829Z,1.13
2023-01-12T16:34:51.905Z,2.03
2023-01-12T16:37:27.740Z,3.17
2023-01-12T16:39:55.621Z,4.03
2023-01-12T16:42:26.347Z,3.23
2023-01-12T16:44:54.687Z,1.53
2023-01-12T16:47:21.947Z,2.40
2023-01-12T16:49:51.323Z,1.73
2023-01-12T16:52:19.886Z,1.47
2023-01-12T16:54:46.667Z,3.57
2023-01-12T16:57:16.170Z,3.83
2023-01-12T16:59:43.515Z,3.17
2023-01-12T17:02:18.182Z,2.13
2023-01-12T17:04:46.006Z,2.03
2023-01-12T17:07:12.943Z,1.30
2023-01-12T17:09:40.368Z,3.23
2023-01-12T17:12:08.117Z,2.80
2023-01-12T17:14:35.934Z,1.77
2023-01-12T17:17:07.380Z,7.30
2023-01-12T17:19:36.368Z,3.37
2023-01-12T17:22:06.378Z,2.23
2023-01-12T17:24:35.207Z,4.07
2023-01-12T17:27:03.503Z,1.73
2023-01-12T17:29:30.804Z,2.27
2023-01-12T17:32:04.485Z,3.70
2023-01-12T17:34:36.399Z,14.03
2023-01-12T17:37:04.467Z,5.33
2023-01-12T17:39:33.888Z,2.23
2023-01-12T17:42:20.823Z,4.77
2023-01-12T17:44:47.821Z,2.80
2023-01-12T17:47:14.382Z,3.33
2023-01-12T17:49:41.306Z,2.30
2023-01-12T17:52:08.272Z,2.00
2023-01-12T17:54:34.812Z,2.13
2023-01-12T17:57:01.830Z,3.30
2023-01-12T17:59:28.413Z,4.23
2023-01-12T18:01:55.460Z,5.07
2023-01-12T18:04:23.651Z,5.43
2023-01-12T18:06:52.584Z,3.83
2023-01-12T18:09:23.371Z,2.33
2023-01-12T18:11:54.929Z,5.07
2023-01-12T18:14:24.512Z,4.27
2023-01-12T18:16:51.203Z,2.03
2023-01-12T18:19:18.260Z,2.67
2023-01-12T18:21:44.807Z,2.53
2023-01-12T18:24:11.577Z,3.30
2023-01-12T18:26:38.644Z,2.10
2023-01-12T18:29:10.259Z,3.83
2023-01-12T18:31:37.377Z,1.70
2023-01-12T18:34:05.872Z,2.47
2023-01-12T18:36:39.154Z,1.50
2023-01-12T18:39:11.226Z,1.93
2023-01-12T18:41:58.877Z,4.00
2023-01-12T18:44:27.017Z,3.90
2023-01-12T18:47:13.023Z,2.63
2023-01-12T18:49:42.384Z,4.17
2023-01-12T18:52:31.066Z,2.37
2023-01-12T18:54:59.096Z,4.50
2023-01-12T18:57:28.402Z,2.60
2023-01-12T19:00:25.564Z,4.97
2023-01-12T19:02:52.684Z,5.10
2023-01-12T19:05:22.445Z,3.37
2023-01-12T19:07:58.118Z,4.17
2023-01-12T19:10:26.234Z,2.23
2023-01-12T19:13:12.971Z,3.40
2023-01-12T19:16:10.186Z,3.73
2023-01-12T19:18:38.636Z,2.60
2023-01-12T19:21:26.568Z,3.17
2023-01-12T19:24:12.227Z,4.10
2023-01-12T19:26:57.272Z,4.03
2023-01-12T19:29:23.936Z,4.80
2023-01-12T19:31:51.313Z,3.23
2023-01-12T19:34:18.826Z,3.07
2023-01-12T19:36:46.809Z,3.00
2023-01-12T19:39:13.376Z,4.77
2023-01-12T19:41:58.522Z,5.13
2023-01-12T19:44:25.103Z,6.30
2023-01-12T19:46:53.030Z,4.23
2023-01-12T19:49:19.562Z,2.40
2023-01-12T19:51:46.888Z,5.87
2023-01-12T19:54:13.436Z,4.90
2023-01-12T19:56:40.265Z,5.40
2023-01-12T19:59:06.838Z,1.90
2023-01-12T20:01:33.537Z,2.90
2023-01-12T20:04:00.947Z,4.30
2023-01-12T20:06:27.746Z,1.93
2023-01-12T20:08:55.078Z,3.90
2023-01-12T20:11:21.613Z,4.87
2023-01-12T20:13:48.172Z,3.57
2023-01-12T20:16:14.767Z,5.30
2023-01-12T20:18:43.459Z,2.73
2023-01-12T20:21:12.164Z,2.47
2023-01-12T20:23:39.025Z,6.90
2023-01-12T20:26:08.055Z,4.00
2023-01-12T20:28:35.370Z,3.57
2023-01-12T20:31:09.771Z,5.43
2023-01-12T20:33:36.881Z,4.10
2023-01-12T20:36:03.679Z,6.63
2023-01-12T20:38:30.723Z,3.53
2023-01-12T20:40:57.317Z,3.13
2023-01-12T20:43:23.930Z,3.13
2023-01-12T20:45:52.365Z,3.90
2023-01-12T20:48:19.159Z,3.80
2023-01-12T20:50:45.934Z,4.27
2023-01-12T20:53:13.753Z,2.87
2023-01-12T20:55:48.471Z,2.40
2023-01-12T20:58:15.504Z,2.97
2023-01-12T21:00:43.067Z,3.00
2023-01-12T21:03:09.732Z,3.10
2023-01-12T21:05:40.742Z,3.57
2023-01-12T21:08:08.627Z,2.33
2023-01-12T21:10:36.576Z,3.73
2023-01-12T21:13:04.231Z,3.47
2023-01-12T21:15:30.995Z,4.37
2023-01-12T21:18:00.470Z,4.13
2023-01-12T21:20:27.383Z,4.87
2023-01-12T21:22:53.963Z,5.07
2023-01-12T21:25:20.495Z,3.07
2023-01-12T21:27:47.141Z,4.67
2023-01-12T21:30:13.794Z,3.13
2023-01-12T21:32:42.727Z,4.40
2023-01-12T21:35:09.530Z,3.57
2023-01-12T21:37:36.406Z,4.50
2023-01-12T21:40:03.856Z,4.30
2023-01-12T21:42:48.805Z,3.97
2023-01-12T21:45:15.677Z,3.10
2023-01-12T21:47:42.242Z,5.50
2023-01-12T21:50:09.453Z,5.53
2023-01-12T21:52:36.198Z,5.90
2023-01-12T21:55:02.785Z,6.13
2023-01-12T21:57:30.195Z,3.30
2023-01-12T21:59:57.350Z,3.83
2023-01-12T22:02:23.906Z,4.60
2023-01-12T22:04:50.396Z,3.90
2023-01-12T22:07:16.989Z,3.23
2023-01-12T22:09:43.511Z,6.23
2023-01-12T22:12:10.040Z,4.27
2023-01-12T22:14:36.724Z,4.97
2023-01-12T22:17:03.289Z,5.80
2023-01-12T22:19:29.766Z,3.50
2023-01-12T22:22:02.550Z,3.80
2023-01-12T22:24:29.060Z,7.40
2023-01-12T22:26:55.798Z,5.93
2023-01-12T22:29:22.546Z,5.50
2023-01-12T22:31:49.473Z,2.27
2023-01-12T22:34:16.446Z,2.10
2023-01-12T22:36:43.345Z,5.70
2023-01-12T22:39:12.789Z,4.07
2023-01-12T22:41:40.208Z,4.33
2023-01-12T22:44:07.070Z,1.67
2023-01-12T22:46:33.730Z,2.17
2023-01-12T22:49:00.312Z,3.03
2023-01-12T22:51:28.110Z,4.20
2023-01-12T22:53:55.769Z,3.80
2023-01-12T22:56:22.671Z,4.97
2023-01-12T22:58:53.170Z,4.23
2023-01-12T23:01:20.962Z,1.53
2023-01-12T23:03:51.146Z,5.40
2023-01-12T23:06:18.179Z,2.90
2023-01-12T23:08:45.642Z,4.50
2023-01-12T23:11:14.840Z,2.57
2023-01-12T23:13:43.849Z,2.47
2023-01-12T23:16:12.862Z,3.90
2023-01-12T23:18:40.391Z,3.23
2023-01-12T23:21:15.850Z,2.10
2023-01-12T23:23:48.267Z,3.57
2023-01-12T23:26:18.788Z,1.93
2023-01-12T23:28:48.131Z,6.37
2023-01-12T23:31:18.150Z,2.03
2023-01-12T23:33:45.621Z,3.07
2023-01-12T23:36:17.817Z,1.70
2023-01-12T23:38:44.843Z,4.17
2023-01-12T23:41:16.684Z,1.80
2023-01-12T23:43:43.409Z,3.30
2023-01-12T23:46:10.391Z,5.20
2023-01-12T23:48:37.095Z,2.47
2023-01-12T23:51:04.711Z,3.23
2023-01-12T23:53:31.661Z,4.33
2023-01-12T23:56:07.047Z,2.73
2023-01-12T23:58:34.185Z,2.37
